Time;durP1;ratioP1;P1;durP2;ratioP2;P2;SDS_P1;SDS_P2;PMS_P1;PMS_P2;Temp;Humidity;BMP_temperature;BMP_pressure;BME280_temperature;BME280_humidity;BME280_pressure;Samples;Min_cycle;Max_cycle;Signal;HPM_P1;HPM_P2
2022/03/05 00:01:01;;;;;;;36.50;15.30;;;;;;;38.01;42.40;100992.06;4991964;28;20426;-78
2022/03/05 00:03:27;;;;;;;22.53;14.60;;;;;;;37.78;42.97;100983.03;5000999;28;20542;-77
2022/03/05 00:05:53;;;;;;;30.70;16.73;;;;;;;37.77;42.61;100982.25;5011325;28;20460;-77
2022/03/05 00:08:19;;;;;;;22.43;13.03;;;;;;;37.81;42.63;100977.88;5013203;28;20408;-77
2022/03/05 00:10:45;;;;;;;25.80;16.90;;;;;;;37.69;43.05;100964.00;5011242;28;20457;-77
2022/03/05 00:13:12;;;;;;;23.87;15.97;;;;;;;37.95;42.84;100972.41;5013792;28;20396;-77
2022/03/05 00:15:38;;;;;;;30.50;16.73;;;;;;;37.85;42.94;100961.78;5011695;28;20501;-76
2022/03/05 00:18:04;;;;;;;37.27;17.27;;;;;;;37.92;42.56;100945.94;5011830;28;20424;-77
2022/03/05 00:20:31;;;;;;;24.50;15.33;;;;;;;38.08;42.43;100944.50;5012932;28;20863;-77
2022/03/05 00:22:57;;;;;;;29.63;15.57;;;;;;;38.35;41.60;100945.53;5011715;28;20449;-79
2022/03/05 00:25:24;;;;;;;37.80;17.97;;;;;;;38.31;41.54;100942.66;5011068;28;20412;-80
2022/03/05 00:27:51;;;;;;;29.30;17.53;;;;;;;38.35;41.88;100953.66;5011524;28;20455;-76
2022/03/05 00:30:17;;;;;;;35.30;15.80;;;;;;;38.18;42.31;100943.44;5011483;28;20424;-80
2022/03/05 00:32:45;;;;;;;27.03;13.93;;;;;;;37.89;42.74;100941.13;5011585;28;20425;-80
2022/03/05 00:35:12;;;;;;;41.93;16.60;;;;;;;37.32;44.39;100932.47;4997225;28;20445;-79
2022/03/05 00:37:38;;;;;;;33.50;17.50;;;;;;;37.76;43.13;100941.94;4976240;28;20410;-78
2022/03/05 00:40:05;;;;;;;31.50;17.13;;;;;;;37.44;43.64;100938.22;4975436;28;20472;-79
2022/03/05 00:42:31;;;;;;;29.87;17.47;;;;;;;37.63;43.68;100936.25;4975600;28;20421;-78
2022/03/05 00:44:57;;;;;;;27.27;14.17;;;;;;;37.58;44.07;100932.84;4975462;28;20451;-77
2022/03/05 00:47:23;;;;;;;27.13;17.00;;;;;;;37.73;43.59;100934.41;4975472;28;20468;-80
2022/03/05 00:49:49;;;;;;;23.87;15.43;;;;;;;37.76;43.71;100920.28;4975655;28;20508;-77
2022/03/05 00:52:16;;;;;;;28.80;17.00;;;;;;;37.78;43.65;100916.16;4975441;28;20421;-76
2022/03/05 00:54:42;;;;;;;34.53;18.70;;;;;;;37.69;43.76;100915.28;4975473;28;20421;-77
2022/03/05 00:57:08;;;;;;;32.73;17.93;;;;;;;37.56;44.27;100916.88;4975333;28;20413;-79
2022/03/05 00:59:34;;;;;;;40.30;24.10;;;;;;;37.81;43.46;100912.06;4975659;28;20476;-80
2022/03/05 01:02:00;;;;;;;34.83;22.53;;;;;;;37.95;43.43;100906.63;4975240;28;20944;-80
2022/03/05 01:04:26;;;;;;;40.90;21.67;;;;;;;37.96;43.42;100903.59;4971458;28;20485;-77
2022/03/05 01:06:52;;;;;;;30.07;20.03;;;;;;;37.97;43.42;100907.91;4972115;28;20470;-76
2022/03/05 01:09:18;;;;;;;41.10;20.33;;;;;;;37.45;44.66;100907.38;4972091;28;20434;-76
2022/03/05 01:11:44;;;;;;;41.63;20.10;;;;;;;37.49;44.51;100902.94;4971939;28;20418;-77
2022/03/05 01:14:10;;;;;;;34.40;19.37;;;;;;;37.62;44.03;100896.72;4971702;28;20488;-77
2022/03/05 01:16:36;;;;;;;30.63;18.40;;;;;;;37.72;43.21;100900.31;4972046;28;20406;-77
2022/03/05 01:19:03;;;;;;;35.20;16.97;;;;;;;37.38;43.83;100898.84;4972040;28;20465;-77
2022/03/05 01:21:29;;;;;;;25.80;18.07;;;;;;;37.60;43.65;100892.72;4971901;28;20450;-77
2022/03/05 01:23:56;;;;;;;30.90;18.20;;;;;;;37.45;43.56;100891.16;4971856;28;20437;-77
2022/03/05 01:26:22;;;;;;;34.23;17.83;;;;;;;37.41;43.56;100892.84;4971790;28;21020;-79
2022/03/05 01:28:48;;;;;;;34.00;18.90;;;;;;;37.18;44.07;100888.41;4971810;28;20926;-77
2022/03/05 01:31:14;;;;;;;27.73;18.60;;;;;;;37.31;43.21;100887.59;4971851;28;20410;-79
2022/03/05 01:33:41;;;;;;;27.97;18.80;;;;;;;37.51;43.20;100881.81;4971988;28;20425;-80
2022/03/05 01:36:07;;;;;;;31.40;19.90;;;;;;;36.98;44.25;100879.59;4971148;28;20422;-76
2022/03/05 01:38:33;;;;;;;25.50;16.17;;;;;;;37.40;43.35;100883.13;4971733;28;20422;-76
2022/03/05 01:40:59;;;;;;;37.27;17.30;;;;;;;37.62;43.01;100877.78;4971352;28;20422;-80
2022/03/05 01:43:25;;;;;;;32.87;19.93;;;;;;;37.82;42.52;100881.19;4971262;28;20449;-78
2022/03/05 01:45:51;;;;;;;32.47;19.40;;;;;;;37.85;42.41;100888.69;4971706;28;20463;-78
2022/03/05 01:48:17;;;;;;;30.93;20.43;;;;;;;38.00;41.96;100887.53;4971489;28;20517;-77
2022/03/05 01:50:43;;;;;;;23.00;15.90;;;;;;;37.99;42.08;100892.16;4971619;28;20810;-77
2022/03/05 01:53:10;;;;;;;26.53;18.03;;;;;;;38.05;41.96;100882.00;4971899;28;20426;-76
2022/03/05 01:55:36;;;;;;;41.83;18.93;;;;;;;38.13;41.76;100889.41;4972430;28;20786;-77
2022/03/05 01:58:03;;;;;;;31.70;18.47;;;;;;;37.47;42.43;100890.84;4971793;28;20501;-81
2022/03/05 02:00:29;;;;;;;32.67;17.37;;;;;;;37.68;41.65;100885.78;4972931;28;20418;-78
2022/03/05 02:02:55;;;;;;;36.10;17.97;;;;;;;37.74;42.08;100879.97;4995002;28;20563;-79
2022/03/05 02:05:23;;;;;;;28.43;18.10;;;;;;;37.87;41.00;100884.56;5010475;28;20920;-78
2022/03/05 02:07:49;;;;;;;24.87;13.37;;;;;;;37.27;41.70;100881.22;5010526;28;20416;-81
2022/03/05 02:10:15;;;;;;;29.53;14.20;;;;;;;37.33;41.19;100880.81;5010538;28;20902;-78
2022/03/05 02:12:42;;;;;;;19.90;11.57;;;;;;;37.15;39.69;100886.31;5011747;28;20927;-77
2022/03/05 02:15:09;;;;;;;24.00;10.90;;;;;;;37.23;39.19;100877.50;5010371;28;20471;-78
2022/03/05 02:17:36;;;;;;;18.90;10.50;;;;;;;37.20;38.20;100888.91;5010056;28;20420;-80
2022/03/05 02:20:05;;;;;;;16.43;8.87;;;;;;;37.38;37.25;100880.72;5010434;28;20420;-80
2022/03/05 02:22:31;;;;;;;17.73;11.53;;;;;;;37.40;36.77;100876.91;5010316;28;20436;-80
2022/03/05 02:25:02;;;;;;;16.57;8.70;;;;;;;36.80;37.82;100872.31;5011007;28;20495;-80
2022/03/05 02:27:29;;;;;;;31.13;9.70;;;;;;;36.57;37.67;100871.34;5013773;28;20468;-78
2022/03/05 02:29:55;;;;;;;17.73;9.63;;;;;;;36.38;38.12;100865.16;5014022;28;21114;-78
2022/03/05 02:32:23;;;;;;;27.90;10.30;;;;;;;36.53;37.79;100864.97;5015128;28;20423;-79
2022/03/05 02:34:49;;;;;;;14.03;9.50;;;;;;;36.46;37.31;100862.66;4989030;28;20991;-77
2022/03/05 02:37:16;;;;;;;13.53;9.53;;;;;;;36.90;37.13;100861.34;4974766;28;20414;-81
2022/03/05 02:39:43;;;;;;;17.33;9.00;;;;;;;37.03;36.89;100863.25;4974876;28;20414;-81
2022/03/05 02:42:10;;;;;;;15.80;7.87;;;;;;;36.64;37.12;100847.44;4974557;28;20463;-79
2022/03/05 02:44:36;;;;;;;15.30;7.93;;;;;;;36.76;36.84;100846.97;4974697;28;20418;-80
2022/03/05 02:47:03;;;;;;;14.80;8.70;;;;;;;36.76;36.93;100847.78;4974281;28;20461;-79
2022/03/05 02:49:29;;;;;;;14.00;7.97;;;;;;;36.93;36.61;100836.41;4974068;28;20437;-79
2022/03/05 02:51:55;;;;;;;14.20;9.30;;;;;;;37.07;36.15;100831.78;4974562;28;20517;-80
2022/03/05 02:54:23;;;;;;;21.30;8.83;;;;;;;37.00;36.52;100828.69;4974394;28;20435;-76
2022/03/05 02:56:49;;;;;;;11.83;7.50;;;;;;;36.92;36.74;100824.00;4974634;28;20422;-81
2022/03/05 02:59:15;;;;;;;11.33;8.30;;;;;;;37.02;36.63;100817.59;4974805;28;20434;-81
2022/03/05 03:01:41;;;;;;;16.13;7.90;;;;;;;37.01;36.79;100815.97;4974371;28;20814;-81
2022/03/05 03:04:07;;;;;;;14.63;8.10;;;;;;;36.76;36.74;100811.84;4973738;28;20556;-80
2022/03/05 03:06:33;;;;;;;17.73;8.93;;;;;;;36.88;36.47;100795.16;4974538;28;21133;-78
2022/03/05 03:08:59;;;;;;;20.53;8.30;;;;;;;36.49;37.51;100797.19;4973891;28;20426;-78
2022/03/05 03:11:26;;;;;;;12.40;7.60;;;;;;;36.90;36.85;100784.84;4974286;28;20473;-78
2022/03/05 03:13:52;;;;;;;14.67;8.60;;;;;;;36.82;36.50;100789.81;4975672;28;20429;-79
2022/03/05 03:16:18;;;;;;;14.53;5.80;;;;;;;36.89;36.50;100778.63;4974178;28;20415;-78
2022/03/05 03:18:44;;;;;;;11.73;6.67;;;;;;;36.74;36.75;100784.31;4973816;28;20449;-80
2022/03/05 03:21:10;;;;;;;11.43;6.67;;;;;;;36.82;36.70;100775.50;4974905;28;20427;-79
2022/03/05 03:23:36;;;;;;;16.17;7.90;;;;;;;37.03;36.83;100774.03;4973472;28;20808;-80
2022/03/05 03:26:03;;;;;;;15.10;8.30;;;;;;;36.93;37.48;100784.25;4973631;28;20462;-77
2022/03/05 03:28:29;;;;;;;17.73;9.60;;;;;;;37.11;36.77;100776.00;4973814;28;20461;-78
2022/03/05 03:30:55;;;;;;;16.23;8.37;;;;;;;37.23;36.74;100772.78;4973605;28;20422;-78
2022/03/05 03:33:21;;;;;;;13.43;8.37;;;;;;;37.22;35.69;100763.09;4973714;28;20909;-80
2022/03/05 03:35:47;;;;;;;13.13;7.60;;;;;;;37.16;36.41;100764.28;4973603;28;20411;-80
2022/03/05 03:38:13;;;;;;;11.83;7.57;;;;;;;37.32;35.72;100757.47;4973241;28;20454;-80
2022/03/05 03:40:39;;;;;;;15.80;7.57;;;;;;;37.45;35.67;100747.75;4974983;28;20405;-78
2022/03/05 03:43:06;;;;;;;19.53;10.90;;;;;;;37.08;36.90;100755.00;4973786;28;20594;-79
2022/03/05 03:45:32;;;;;;;14.47;8.63;;;;;;;36.70;37.57;100757.06;4973058;28;20457;-77
2022/03/05 03:47:58;;;;;;;11.63;7.03;;;;;;;36.90;37.00;100753.22;4974909;28;20410;-80
2022/03/05 03:50:24;;;;;;;15.43;8.77;;;;;;;37.11;36.40;100748.97;4973177;28;20529;-76
2022/03/05 03:52:51;;;;;;;18.50;7.60;;;;;;;37.09;36.44;100750.38;4973092;28;20426;-80
2022/03/05 03:55:20;;;;;;;11.50;7.23;;;;;;;37.22;36.92;100744.16;4973137;28;20462;-80
2022/03/05 03:57:46;;;;;;;10.57;7.53;;;;;;;37.10;36.68;100741.97;4981758;28;20433;-78
2022/03/05 04:00:15;;;;;;;12.80;8.73;;;;;;;37.17;36.69;100743.47;4993585;28;20452;-77
2022/03/05 04:02:42;;;;;;;16.40;7.80;;;;;;;37.34;36.29;100738.25;4995111;28;20483;-78
2022/03/05 04:05:09;;;;;;;11.63;7.00;;;;;;;37.32;36.38;100735.00;5011919;28;20468;-76
2022/03/05 04:10:21;;;;;;;17.70;6.67;;;;;;;37.03;36.49;100743.50;5013652;28;20447;-79
2022/03/05 04:12:47;;;;;;;13.00;8.60;;;;;;;36.98;36.73;100741.69;5011888;28;20516;-79
2022/03/05 04:15:13;;;;;;;20.80;7.60;;;;;;;36.99;36.53;100748.69;5012056;28;20482;-79
2022/03/05 04:17:40;;;;;;;12.17;7.97;;;;;;;37.04;36.50;100747.78;5012153;28;20420;-80
2022/03/05 04:20:07;;;;;;;20.50;9.33;;;;;;;37.07;36.75;100750.66;5011952;28;20466;-80
2022/03/05 04:22:34;;;;;;;24.73;9.90;;;;;;;36.95;36.84;100753.09;5011987;28;20944;-81
2022/03/05 04:25:00;;;;;;;13.97;8.63;;;;;;;37.02;36.93;100756.22;5011828;28;20447;-79
2022/03/05 04:27:26;;;;;;;18.63;10.33;;;;;;;36.95;37.25;100752.28;5011905;28;20467;-80
2022/03/05 04:29:53;;;;;;;13.40;9.70;;;;;;;36.82;37.58;100751.16;5011469;28;20456;-78
2022/03/05 04:32:19;;;;;;;31.73;10.07;;;;;;;36.95;37.12;100749.59;5011750;28;20424;-80
2022/03/05 04:34:45;;;;;;;16.97;10.43;;;;;;;36.97;37.11;100742.00;4997679;28;20429;-78
2022/03/05 04:37:11;;;;;;;16.67;10.13;;;;;;;37.05;36.90;100739.38;4975606;28;20437;-80
2022/03/05 04:39:37;;;;;;;22.93;11.43;;;;;;;36.52;37.83;100747.16;4975937;28;20448;-80
2022/03/05 04:42:03;;;;;;;15.13;10.77;;;;;;;36.73;38.08;100742.16;4975828;28;20418;-77
2022/03/05 04:44:29;;;;;;;17.57;10.50;;;;;;;36.68;38.36;100740.38;4975481;28;20425;-78
2022/03/05 04:46:55;;;;;;;16.93;10.63;;;;;;;36.81;37.93;100744.97;4975905;28;20465;-80
2022/03/05 04:49:23;;;;;;;18.13;9.53;;;;;;;36.85;37.72;100739.75;4974448;28;20421;-79
2022/03/05 04:51:49;;;;;;;16.50;10.97;;;;;;;36.80;37.67;100746.06;4975454;28;20421;-77
2022/03/05 04:54:15;;;;;;;19.73;11.13;;;;;;;36.71;38.07;100741.66;4975331;28;20543;-80
2022/03/05 04:56:42;;;;;;;25.97;12.33;;;;;;;36.77;37.96;100752.09;4975423;28;20457;-80
2022/03/05 04:59:08;;;;;;;31.40;14.73;;;;;;;36.78;37.13;100748.28;4993207;28;20401;-78
2022/03/05 05:01:34;;;;;;;25.40;15.20;;;;;;;36.58;37.97;100754.84;4975730;28;20479;-77
2022/03/05 05:04:00;;;;;;;19.97;11.93;;;;;;;36.49;37.62;100751.25;4975105;28;20524;-77
2022/03/05 05:06:26;;;;;;;22.37;12.30;;;;;;;36.55;37.59;100749.28;4975015;28;20487;-78
2022/03/05 05:08:52;;;;;;;15.93;10.90;;;;;;;36.62;37.73;100746.16;4992759;28;20472;-78
2022/03/05 05:11:19;;;;;;;21.20;10.87;;;;;;;36.63;37.92;100742.34;4992894;28;20561;-79
2022/03/05 05:13:45;;;;;;;16.50;10.40;;;;;;;36.63;38.20;100745.84;4975810;28;20426;-80
2022/03/05 05:16:11;;;;;;;15.63;10.07;;;;;;;36.71;37.95;100744.34;4975799;28;20421;-78
2022/03/05 05:18:37;;;;;;;18.20;9.40;;;;;;;36.84;37.57;100741.66;4992479;28;20944;-78
2022/03/05 05:21:03;;;;;;;15.57;9.60;;;;;;;36.89;37.56;100743.47;4974900;28;20424;-76
2022/03/05 05:23:30;;;;;;;18.23;10.63;;;;;;;36.84;37.96;100751.69;4975208;28;20433;-75
2022/03/05 05:25:56;;;;;;;18.23;11.60;;;;;;;36.85;37.87;100737.84;4975069;28;20566;-77
2022/03/05 05:28:22;;;;;;;17.43;10.47;;;;;;;36.43;38.57;100743.56;4992473;28;20452;-79
2022/03/05 05:30:48;;;;;;;20.40;10.93;;;;;;;36.30;39.21;100732.41;4974960;28;20426;-80
2022/03/05 05:33:14;;;;;;;18.50;11.67;;;;;;;36.39;38.49;100737.09;4974872;28;20421;-79
2022/03/05 05:35:41;;;;;;;20.70;12.67;;;;;;;36.25;39.02;100734.38;4992335;28;20544;-80
2022/03/05 05:38:07;;;;;;;31.40;18.03;;;;;;;36.21;39.29;100731.47;4975219;28;20429;-80
2022/03/05 05:40:34;;;;;;;42.50;21.33;;;;;;;36.08;39.42;100734.94;4975324;28;20429;-78
2022/03/05 05:43:00;;;;;;;39.90;24.00;;;;;;;36.16;39.40;100734.28;4974985;28;20481;-77
2022/03/05 05:45:26;;;;;;;34.07;22.50;;;;;;;36.01;39.53;100731.81;4974871;28;20479;-77
2022/03/05 05:47:52;;;;;;;33.23;17.90;;;;;;;36.17;39.62;100730.47;4975062;28;20969;-80
2022/03/05 05:50:18;;;;;;;30.13;16.70;;;;;;;36.19;39.73;100741.78;4974835;28;20468;-80
2022/03/05 05:52:44;;;;;;;27.37;14.73;;;;;;;36.46;38.40;100741.06;4975209;28;20921;-78
2022/03/05 05:55:10;;;;;;;23.90;12.53;;;;;;;36.44;39.06;100743.25;4974735;28;20467;-78
2022/03/05 05:57:37;;;;;;;27.20;11.67;;;;;;;36.56;38.72;100748.97;4974962;28;20441;-77
2022/03/05 06:00:04;;;;;;;22.57;11.73;;;;;;;36.54;38.53;100748.47;4975709;28;20932;-78
2022/03/05 06:02:30;;;;;;;21.87;12.63;;;;;;;36.54;39.00;100751.16;4991992;28;20967;-79
2022/03/05 06:04:56;;;;;;;19.83;11.97;;;;;;;36.48;38.86;100749.66;5014049;28;20487;-79
2022/03/05 06:07:23;;;;;;;37.40;15.13;;;;;;;36.35;39.15;100755.81;5013885;28;20456;-77
2022/03/05 06:09:49;;;;;;;20.13;10.50;;;;;;;36.63;38.64;100761.28;5014568;28;20431;-80
2022/03/05 06:12:15;;;;;;;19.60;11.10;;;;;;;36.81;38.67;100765.78;5014101;28;20457;-79
2022/03/05 06:14:41;;;;;;;14.83;10.07;;;;;;;36.85;38.39;100769.50;5014313;28;20457;-78
2022/03/05 06:17:08;;;;;;;19.60;10.47;;;;;;;36.93;37.96;100774.22;5014297;28;20796;-77
2022/03/05 06:19:34;;;;;;;21.63;9.87;;;;;;;36.93;38.37;100779.63;5015361;28;20444;-81
2022/03/05 06:22:00;;;;;;;20.57;9.87;;;;;;;36.96;38.03;100784.44;5013689;28;20430;-80
2022/03/05 06:24:26;;;;;;;18.63;10.23;;;;;;;37.03;38.26;100790.25;5014315;28;20986;-81
2022/03/05 06:26:52;;;;;;;16.50;10.33;;;;;;;36.91;38.20;100781.06;5013711;28;20987;-79
2022/03/05 06:29:18;;;;;;;18.47;12.30;;;;;;;36.83;38.20;100775.22;5013675;28;20801;-78
2022/03/05 06:31:44;;;;;;;26.10;9.33;;;;;;;37.01;38.11;100773.50;5014111;28;20424;-81
2022/03/05 06:34:10;;;;;;;17.80;10.80;;;;;;;37.01;37.99;100784.31;5015254;28;20489;-78
2022/03/05 06:36:36;;;;;;;20.53;12.30;;;;;;;36.89;38.21;100786.72;5013362;28;20463;-77
2022/03/05 06:39:03;;;;;;;25.87;11.60;;;;;;;36.72;38.34;100786.53;5006028;28;20424;-77
2022/03/05 06:41:29;;;;;;;25.00;13.37;;;;;;;36.80;38.37;100777.72;4977845;28;20424;-80
2022/03/05 06:43:55;;;;;;;23.20;12.97;;;;;;;36.92;38.36;100780.75;4977883;28;20997;-78
2022/03/05 06:46:21;;;;;;;35.73;15.37;;;;;;;37.02;38.39;100780.53;4977988;28;20519;-76
2022/03/05 06:48:47;;;;;;;30.20;12.40;;;;;;;37.06;37.74;100781.53;4977323;28;20421;-80
2022/03/05 06:51:14;;;;;;;23.27;12.30;;;;;;;36.61;39.10;100777.78;4977655;28;20421;-77
2022/03/05 06:53:40;;;;;;;21.60;11.93;;;;;;;36.53;38.93;100781.19;4977439;28;20456;-80
2022/03/05 06:56:06;;;;;;;27.47;13.20;;;;;;;36.48;39.19;100779.38;4977474;28;20441;-79
2022/03/05 06:58:32;;;;;;;30.00;12.67;;;;;;;36.68;38.66;100790.91;4978097;28;20429;-81
2022/03/05 07:00:59;;;;;;;20.60;12.23;;;;;;;36.88;38.71;100800.56;4988454;28;20762;-80
2022/03/05 07:03:25;;;;;;;26.20;12.30;;;;;;;36.94;38.74;100792.03;5000583;28;20476;-81
2022/03/05 07:05:51;;;;;;;35.53;13.70;;;;;;;37.06;39.14;100795.03;5002674;28;21003;-83
2022/03/05 07:08:17;;;;;;;35.07;15.00;;;;;;;37.22;38.69;100792.03;5003466;28;20882;-82
2022/03/05 07:10:43;;;;;;;26.30;13.17;;;;;;;37.30;38.76;100797.53;5004362;28;20933;-76
2022/03/05 07:13:09;;;;;;;28.03;14.30;;;;;;;37.39;38.94;100808.47;5005040;28;20815;-80
2022/03/05 07:15:35;;;;;;;27.20;15.43;;;;;;;37.52;39.07;100807.66;5003347;28;20941;-81
2022/03/05 07:18:01;;;;;;;39.90;18.07;;;;;;;37.53;39.26;100817.34;5003060;28;20455;-84
2022/03/05 07:20:27;;;;;;;34.53;16.30;;;;;;;37.52;39.41;100817.66;5011256;28;20409;-84
2022/03/05 07:22:53;;;;;;;32.40;16.07;;;;;;;37.44;39.94;100830.00;4999815;28;20550;-83
2022/03/05 07:25:19;;;;;;;19.93;10.33;;;;;;;37.48;39.99;100830.19;5003775;28;20424;-80
2022/03/05 07:27:45;;;;;;;30.43;9.97;;;;;;;37.62;39.70;100836.38;4991218;28;20458;-83
2022/03/05 07:30:12;;;;;;;14.70;9.33;;;;;;;37.79;39.90;100833.03;4991077;28;20440;-79
2022/03/05 07:32:38;;;;;;;17.77;10.70;;;;;;;37.75;39.96;100830.16;4992923;28;20436;-79
2022/03/05 07:35:06;;;;;;;18.73;9.50;;;;;;;37.74;39.74;100833.94;4993350;28;20429;-82
2022/03/05 07:37:32;;;;;;;17.70;9.67;;;;;;;37.86;39.50;100838.84;4993563;28;20785;-79
2022/03/05 07:39:58;;;;;;;33.60;11.80;;;;;;;37.96;40.03;100826.97;4994142;28;20464;-78
2022/03/05 07:42:25;;;;;;;18.50;9.20;;;;;;;38.00;40.26;100828.78;4993095;28;20426;-77
2022/03/05 07:44:51;;;;;;;18.60;8.27;;;;;;;38.03;39.99;100828.16;4992926;28;20507;-78
2022/03/05 07:47:17;;;;;;;25.37;9.17;;;;;;;38.15;39.85;100833.00;4992610;28;20476;-78
2022/03/05 07:49:43;;;;;;;19.53;9.93;;;;;;;38.06;40.35;100827.56;4992602;28;20444;-76
2022/03/05 07:52:09;;;;;;;29.37;11.43;;;;;;;38.17;39.68;100839.72;4994101;28;20409;-76
2022/03/05 07:54:35;;;;;;;21.10;11.13;;;;;;;38.33;39.87;100840.19;4992755;28;20425;-78
2022/03/05 07:57:01;;;;;;;22.27;10.93;;;;;;;38.35;40.12;100835.25;4992396;28;20421;-74
2022/03/05 07:59:27;;;;;;;22.13;11.33;;;;;;;38.30;39.98;100835.38;4993873;28;20874;-74
2022/03/05 08:01:53;;;;;;;19.50;9.70;;;;;;;38.35;39.89;100827.13;4992247;28;20461;-77
2022/03/05 08:04:19;;;;;;;15.77;10.30;;;;;;;38.24;40.28;100838.47;4972484;28;20482;-77
2022/03/05 08:06:45;;;;;;;19.70;11.67;;;;;;;38.11;40.52;100834.72;5001364;28;20556;-76
2022/03/05 08:09:11;;;;;;;22.83;11.93;;;;;;;38.22;40.54;100843.41;5000794;28;20426;-76
2022/03/05 08:11:38;;;;;;;22.50;10.00;;;;;;;38.05;41.02;100834.06;5002330;28;20431;-78
2022/03/05 08:14:04;;;;;;;18.83;10.53;;;;;;;38.06;41.26;100843.81;5001956;28;20425;-78
2022/03/05 08:16:31;;;;;;;17.80;9.67;;;;;;;38.21;40.68;100839.91;5001007;28;20512;-73
2022/03/05 08:18:59;;;;;;;23.53;12.73;;;;;;;38.25;40.76;100837.41;5001955;28;20461;-77
2022/03/05 08:21:28;;;;;;;21.50;12.10;;;;;;;38.20;40.38;100834.81;5000887;28;20424;-79
2022/03/05 08:23:56;;;;;;;21.57;9.70;;;;;;;38.29;40.70;100833.78;4992315;28;20817;-81
2022/03/05 08:26:22;;;;;;;18.50;9.97;;;;;;;38.26;40.83;100825.44;5001681;28;20456;-79
2022/03/05 08:28:48;;;;;;;21.37;11.83;;;;;;;38.36;40.54;100833.34;5002646;28;20417;-80
2022/03/05 08:31:16;;;;;;;14.70;10.20;;;;;;;38.38;40.66;100825.72;5001189;28;20437;-80
2022/03/05 08:33:43;;;;;;;19.57;12.67;;;;;;;38.52;40.41;100826.41;4998564;28;20461;-80
2022/03/05 08:36:09;;;;;;;20.30;11.97;;;;;;;38.59;40.39;100826.75;5000456;28;20845;-78
2022/03/05 08:38:36;;;;;;;26.43;13.20;;;;;;;38.68;40.28;100827.63;5002487;28;20508;-79
2022/03/05 08:41:04;;;;;;;20.70;10.20;;;;;;;38.69;40.26;100825.72;5001259;28;20437;-81
2022/03/05 08:43:30;;;;;;;23.23;12.83;;;;;;;38.61;40.26;100821.84;5000272;28;20479;-80
2022/03/05 08:45:57;;;;;;;22.67;10.80;;;;;;;38.76;40.08;100828.78;5001807;28;20525;-80
2022/03/05 08:48:23;;;;;;;26.83;10.13;;;;;;;38.81;40.41;100830.56;5004003;28;20432;-81
2022/03/05 08:50:49;;;;;;;20.30;10.17;;;;;;;38.74;40.37;100819.38;5010013;28;20974;-80
2022/03/05 08:53:15;;;;;;;20.97;10.53;;;;;;;38.68;40.67;100827.63;5004699;28;20427;-79
2022/03/05 08:55:42;;;;;;;21.33;11.90;;;;;;;38.65;40.57;100827.44;4990708;28;20508;-79
2022/03/05 08:58:08;;;;;;;18.23;11.43;;;;;;;38.62;41.16;100830.78;4975548;28;20441;-77
2022/03/05 09:00:34;;;;;;;25.67;12.43;;;;;;;38.57;41.59;100831.72;4993388;28;20511;-78
2022/03/05 09:03:00;;;;;;;30.03;14.30;;;;;;;38.53;41.57;100833.44;5010140;28;20482;-79
2022/03/05 09:05:26;;;;;;;24.13;12.80;;;;;;;38.64;40.94;100831.25;5003329;28;20436;-79
2022/03/05 09:07:52;;;;;;;26.43;11.73;;;;;;;38.57;41.31;100831.72;5008744;28;20502;-79
2022/03/05 09:10:18;;;;;;;24.23;11.03;;;;;;;38.74;41.20;100841.06;5014404;28;20431;-74
2022/03/05 09:12:44;;;;;;;21.23;12.27;;;;;;;38.93;40.87;100841.63;5014696;28;20419;-75
2022/03/05 09:15:11;;;;;;;24.80;11.17;;;;;;;38.77;41.17;100840.44;4998271;28;20434;-75
2022/03/05 09:17:37;;;;;;;27.10;13.53;;;;;;;38.66;41.48;100831.75;5014675;28;20482;-77
2022/03/05 09:20:05;;;;;;;34.53;14.20;;;;;;;38.98;40.93;100841.50;5014537;28;20562;-78
2022/03/05 09:22:31;;;;;;;19.47;13.27;;;;;;;38.88;41.32;100849.91;5014594;28;20450;-76
2022/03/05 09:24:57;;;;;;;22.80;12.70;;;;;;;38.77;41.37;100848.56;5032081;28;20904;-76
2022/03/05 09:27:24;;;;;;;21.60;12.43;;;;;;;38.77;41.19;100859.41;5013675;28;20525;-75
2022/03/05 09:29:50;;;;;;;35.40;13.00;;;;;;;38.84;41.43;100848.91;5013760;28;20875;-79
2022/03/05 09:32:16;;;;;;;16.83;12.73;;;;;;;38.68;41.68;100859.34;5014096;28;20470;-78
2022/03/05 09:34:42;;;;;;;21.80;11.23;;;;;;;38.75;41.41;100854.31;5016403;28;20427;-80
2022/03/05 09:37:08;;;;;;;24.60;11.30;;;;;;;38.78;41.45;100863.72;5018039;28;20439;-77
2022/03/05 09:39:36;;;;;;;25.77;12.50;;;;;;;38.83;41.48;100861.69;5009312;28;20416;-78
2022/03/05 09:42:04;;;;;;;25.27;12.33;;;;;;;38.89;41.08;100862.34;5004188;28;20989;-74
2022/03/05 09:44:30;;;;;;;24.37;11.97;;;;;;;39.01;41.21;100870.69;5000469;28;20420;-76
2022/03/05 09:46:58;;;;;;;32.07;13.37;;;;;;;39.02;40.73;100861.44;5000624;28;20495;-73
2022/03/05 09:49:27;;;;;;;27.80;12.33;;;;;;;39.15;40.67;100874.09;4998248;28;20921;-73
2022/03/05 09:51:54;;;;;;;19.30;10.67;;;;;;;39.17;40.31;100874.63;4998144;28;20936;-75
2022/03/05 09:54:20;;;;;;;20.03;12.40;;;;;;;39.15;40.78;100876.00;4998159;28;20427;-75
2022/03/05 09:56:47;;;;;;;19.37;10.93;;;;;;;39.13;40.86;100875.53;4998129;28;20931;-75
2022/03/05 09:59:13;;;;;;;19.10;11.87;;;;;;;39.13;40.84;100872.81;4998252;28;20425;-75
2022/03/05 10:01:41;;;;;;;23.70;11.40;;;;;;;39.19;40.58;100879.72;4999178;28;20428;-75
2022/03/05 10:04:22;;;;;;;22.00;11.37;;;;;;;38.94;40.97;100873.06;5003537;28;20471;-74
2022/03/05 10:07:11;;;;;;;24.60;11.67;;;;;;;39.08;40.56;100873.75;5012685;28;20474;-74
2022/03/05 10:09:39;;;;;;;17.43;11.00;;;;;;;39.16;40.57;100883.03;5028730;28;20401;-76
2022/03/05 10:12:31;;;;;;;23.77;12.70;;;;;;;39.09;40.73;100869.91;5003526;28;20459;-75
2022/03/05 10:15:07;;;;;;;19.70;11.00;;;;;;;39.14;40.50;100871.69;5017458;28;20417;-69
2022/03/05 10:17:51;;;;;;;22.33;12.23;;;;;;;39.12;40.72;100874.72;5011084;28;20506;-75
2022/03/05 10:20:19;;;;;;;20.20;10.07;;;;;;;39.25;40.61;100873.03;5004650;28;20841;-78
2022/03/05 10:23:12;;;;;;;18.73;10.20;;;;;;;39.36;40.18;100876.25;5006561;28;20447;-78
2022/03/05 10:25:40;;;;;;;21.93;11.53;;;;;;;39.26;40.41;100874.63;5004006;28;20424;-79
2022/03/05 10:28:12;;;;;;;19.17;12.13;;;;;;;39.06;40.82;100872.47;5004186;28;20818;-79
2022/03/05 10:30:47;;;;;;;20.60;11.83;;;;;;;39.21;40.65;100874.78;5002380;28;20425;-72
2022/03/05 10:33:27;;;;;;;22.57;11.80;;;;;;;39.41;40.40;100876.91;5000397;28;20451;-77
2022/03/05 10:35:53;;;;;;;23.60;11.70;;;;;;;39.27;40.69;100880.84;5001791;28;20456;-71
2022/03/05 10:38:19;;;;;;;23.63;10.77;;;;;;;39.35;40.29;100878.19;4999356;28;20498;-71
2022/03/05 10:40:56;;;;;;;21.10;11.57;;;;;;;39.27;40.48;100878.94;5003127;28;20424;-74
2022/03/05 10:43:23;;;;;;;28.67;11.40;;;;;;;39.46;40.43;100884.09;4997150;28;20423;-74
2022/03/05 10:45:58;;;;;;;20.83;11.50;;;;;;;39.53;40.37;100870.84;4992325;28;20807;-73
2022/03/05 10:48:29;;;;;;;22.47;12.40;;;;;;;39.41;40.44;100870.66;4986579;28;20435;-80
2022/03/05 10:50:59;;;;;;;37.63;14.87;;;;;;;39.55;40.17;100871.34;4984092;28;20425;-79
2022/03/05 10:53:45;;;;;;;25.77;12.47;;;;;;;39.54;40.21;100869.75;5002015;28;20420;-79
2022/03/05 10:56:24;;;;;;;24.47;13.23;;;;;;;39.46;40.79;100859.66;5005360;28;20484;-76
2022/03/05 10:59:02;;;;;;;29.87;14.77;;;;;;;39.56;40.65;100851.22;4990963;28;20484;-76
2022/03/05 11:01:29;;;;;;;18.63;11.97;;;;;;;39.55;40.46;100854.25;4987023;28;20433;-77
2022/03/05 11:03:57;;;;;;;27.40;14.00;;;;;;;39.53;40.85;100853.75;4985498;28;20476;-71
2022/03/05 11:06:24;;;;;;;21.57;13.87;;;;;;;39.43;41.23;100850.25;5002469;28;20474;-76
2022/03/05 11:08:51;;;;;;;28.80;15.20;;;;;;;39.47;40.98;100858.53;5014553;28;20432;-74
2022/03/05 11:11:19;;;;;;;24.60;15.90;;;;;;;39.42;41.41;100851.38;4989049;28;20424;-74
2022/03/05 11:13:45;;;;;;;27.30;15.03;;;;;;;39.46;41.28;100851.50;4993432;28;20496;-76